Time,TemperatureF,DewpointF,PressureIn,WindDirection,WindDirectionDegrees,WindSpeedMPH,WindSpeedGustMPH,Humidity,HourlyPrecipIn,Conditions,Clouds,dailyrainin,SoftwareType,DateUTC
2013-03-24 00:01:00,0.0,-5.0,30.10,NNW,344,1.0,-999.0,77,-99.99,,,-99.99,,2013-03-24 06:01:00,
2013-03-24 00:21:00,1.0,-4.0,30.11,NNW,336,2.0,-999.0,77,-99.99,,,-99.99,,2013-03-24 06:21:00,
2013-03-24 00:32:00,1.0,-4.0,30.10,North,349,1.0,-999.0,79,-99.99,,,-99.99,,2013-03-24 06:32:00,
2013-03-24 00:42:00,1.0,-4.0,30.10,North,349,1.0,-999.0,79,-99.99,,,-99.99,,2013-03-24 06:42:00,
2013-03-24 00:52:00,1.0,-4.0,30.09,NNW,348,1.0,-999.0,78,-99.99,,,-99.99,,2013-03-24 06:52:00,
2013-03-24 01:01:00,2.0,-4.0,30.09,NNW,348,0.0,-999.0,75,-99.99,,,-99.99,,2013-03-24 07:01:00,
2013-03-24 01:11:00,2.0,-4.0,30.09,NNW,348,0.0,-999.0,75,-99.99,,,-99.99,,2013-03-24 07:11:00,
2013-03-24 01:22:00,4.0,-2.0,30.09,NNW,346,2.0,-999.0,75,-99.99,,,-99.99,,2013-03-24 07:22:00,
2013-03-24 01:31:00,2.0,-5.0,30.09,NNE,17,1.0,-999.0,71,-99.99,,,-99.99,,2013-03-24 07:31:00,
2013-03-24 01:42:00,2.0,-5.0,30.09,NNE,17,1.0,-999.0,71,-99.99,,,-99.99,,2013-03-24 07:42:00,
2013-03-24 01:52:00,2.0,-3.0,30.09,NNE,24,2.0,-999.0,79,-99.99,,,-99.99,,2013-03-24 07:52:00,
2013-03-24 02:02:00,3.0,-2.0,30.09,NNE,24,2.0,-999.0,78,-99.99,,,-99.99,,2013-03-24 08:02:00,
2013-03-24 02:21:00,4.0,-2.0,30.09,NNW,340,2.0,-999.0,77,-99.99,,,-99.99,,2013-03-24 08:21:00,
2013-03-24 02:31:00,5.0,-1.0,30.09,NNW,331,3.0,-999.0,76,-99.99,,,-99.99,,2013-03-24 08:31:00,
2013-03-24 02:41:00,5.0,-1.0,30.09,NNW,331,3.0,-999.0,76,-99.99,,,-99.99,,2013-03-24 08:41:00,
2013-03-24 02:52:00,5.0,1.0,30.09,NNW,340,3.0,-999.0,84,-99.99,,,-99.99,,2013-03-24 08:52:00,
2013-03-24 03:01:00,5.0,0.0,30.09,NNW,341,3.0,-999.0,78,-99.99,,,-99.99,,2013-03-24 09:01:00,
2013-03-24 03:12:00,5.0,0.0,30.09,NNW,341,3.0,-999.0,78,-99.99,,,-99.99,,2013-03-24 09:12:00,
2013-03-24 03:21:00,6.0,1.0,30.08,NNW,343,2.0,-999.0,81,-99.99,,,-99.99,,2013-03-24 09:21:00,
2013-03-24 03:32:00,6.0,2.0,30.10,NNW,343,1.0,-999.0,82,-99.99,,,-99.99,,2013-03-24 09:32:00,
2013-03-24 03:42:00,6.0,2.0,30.10,NNW,343,1.0,-999.0,82,-99.99,,,-99.99,,2013-03-24 09:42:00,
2013-03-24 03:52:00,5.0,1.0,30.09,NNW,329,2.0,-999.0,83,-99.99,,,-99.99,,2013-03-24 09:52:00,
2013-03-24 04:02:00,5.0,1.0,30.09,NNW,329,1.0,-999.0,82,-99.99,,,-99.99,,2013-03-24 10:02:00,
2013-03-24 04:12:00,5.0,1.0,30.09,NNW,329,1.0,-999.0,82,-99.99,,,-99.99,,2013-03-24 10:12:00,
2013-03-24 04:22:00,4.0,-1.0,30.09,NNW,329,1.0,-999.0,80,-99.99,,,-99.99,,2013-03-24 10:22:00,
2013-03-24 04:32:00,2.0,-3.0,30.09,NNW,329,0.0,-999.0,79,-99.99,,,-99.99,,2013-03-24 10:32:00,
2013-03-24 04:41:00,2.0,-3.0,30.09,NNW,329,0.0,-999.0,79,-99.99,,,-99.99,,2013-03-24 10:41:00,
2013-03-24 04:52:00,2.0,-3.0,30.10,NNW,329,1.0,-999.0,80,-99.99,,,-99.99,,2013-03-24 10:52:00,
2013-03-24 05:02:00,2.0,-3.0,30.10,NNW,338,3.0,-999.0,79,-99.99,,,-99.99,,2013-03-24 11:02:00,
2013-03-24 05:11:00,2.0,-3.0,30.10,NNW,338,3.0,-999.0,79,-99.99,,,-99.99,,2013-03-24 11:11:00,
2013-03-24 05:21:00,2.0,-3.0,30.10,NNW,333,2.0,-999.0,78,-99.99,,,-99.99,,2013-03-24 11:21:00,
2013-03-24 05:32:00,-1.0,-7.0,30.11,NNW,333,0.0,-999.0,76,-99.99,,,-99.99,,2013-03-24 11:32:00,
2013-03-24 05:42:00,-1.0,-7.0,30.11,NNW,333,0.0,-999.0,76,-99.99,,,-99.99,,2013-03-24 11:42:00,
2013-03-24 05:52:00,-3.0,-9.0,30.09,NNE,15,1.0,-999.0,76,-99.99,,,-99.99,,2013-03-24 11:52:00,
2013-03-24 06:02:00,-5.0,-10.0,30.09,NNE,15,0.0,-999.0,79,-99.99,,,-99.99,,2013-03-24 12:02:00,
2013-03-24 06:11:00,-5.0,-10.0,30.09,NNE,15,0.0,-999.0,79,-99.99,,,-99.99,,2013-03-24 12:11:00,
2013-03-24 06:22:00,-4.0,-8.0,30.09,NNE,15,1.0,-999.0,81,-99.99,,,-99.99,,2013-03-24 12:22:00,
2013-03-24 06:32:00,-3.0,-6.0,30.09,NNE,15,2.0,-999.0,85,-99.99,,,-99.99,,2013-03-24 12:32:00,
2013-03-24 06:42:00,-3.0,-6.0,30.09,NNE,15,2.0,-999.0,85,-99.99,,,-99.99,,2013-03-24 12:42:00,
2013-03-24 06:52:00,-3.0,-7.0,30.10,NNE,15,1.0,-999.0,84,-99.99,,,-99.99,,2013-03-24 12:52:00,
2013-03-24 07:01:00,-5.0,-10.0,30.10,NNE,15,1.0,-999.0,79,-99.99,,,-99.99,,2013-03-24 13:01:00,
2013-03-24 07:11:00,-5.0,-10.0,30.10,NNE,15,1.0,-999.0,79,-99.99,,,-99.99,,2013-03-24 13:11:00,
2013-03-24 07:22:00,-7.0,-12.0,30.11,NNE,16,2.0,-999.0,80,-99.99,,,-99.99,,2013-03-24 13:22:00,
2013-03-24 07:31:00,-5.0,-10.0,30.11,North,5,1.0,-999.0,80,-99.99,,,-99.99,,2013-03-24 13:31:00,
2013-03-24 07:42:00,-5.0,-10.0,30.11,North,5,1.0,-999.0,80,-99.99,,,-99.99,,2013-03-24 13:42:00,
2013-03-24 07:52:00,-4.0,-8.0,30.11,North,5,1.0,-999.0,81,-99.99,,,-99.99,,2013-03-24 13:52:00,
2013-03-24 08:01:00,-3.0,-7.0,30.12,North,5,1.0,-999.0,81,-99.99,,,-99.99,,2013-03-24 14:01:00,
2013-03-24 08:11:00,-3.0,-7.0,30.12,North,5,1.0,-999.0,81,-99.99,,,-99.99,,2013-03-24 14:11:00,
2013-03-24 08:21:00,-2.0,-6.0,30.12,North,9,0.0,-999.0,82,-99.99,,,-99.99,,2013-03-24 14:21:00,
2013-03-24 08:32:00,0.0,-4.0,30.12,North,9,2.0,-999.0,82,-99.99,,,-99.99,,2013-03-24 14:32:00,
2013-03-24 08:42:00,0.0,-4.0,30.12,North,9,2.0,-999.0,82,-99.99,,,-99.99,,2013-03-24 14:42:00,
2013-03-24 08:52:00,2.0,-2.0,30.12,NNW,330,3.0,-999.0,81,-99.99,,,-99.99,,2013-03-24 14:52:00,
2013-03-24 09:01:00,3.0,-3.0,30.11,NNW,336,1.0,-999.0,77,-99.99,,,-99.99,,2013-03-24 15:01:00,
2013-03-24 09:11:00,3.0,-3.0,30.11,NNW,336,1.0,-999.0,77,-99.99,,,-99.99,,2013-03-24 15:11:00,
2013-03-24 09:22:00,5.0,-1.0,30.14,NNW,336,1.0,-999.0,75,-99.99,,,-99.99,,2013-03-24 15:22:00,
2013-03-24 09:32:00,6.0,-1.0,30.14,NNW,336,1.0,-999.0,72,-99.99,,,-99.99,,2013-03-24 15:32:00,
2013-03-24 09:53:00,7.0,0.0,30.14,NNW,344,2.0,-999.0,72,-99.99,,,-99.99,,2013-03-24 15:53:00,
2013-03-24 10:02:00,7.0,-1.0,30.14,NE,34,4.0,-999.0,70,-99.99,,,-99.99,,2013-03-24 16:02:00,
2013-03-24 10:12:00,7.0,-1.0,30.14,NE,34,4.0,-999.0,70,-99.99,,,-99.99,,2013-03-24 16:12:00,
2013-03-24 10:22:00,7.0,0.0,30.14,NE,35,6.0,-999.0,71,-99.99,,,-99.99,,2013-03-24 16:22:00,
2013-03-24 10:32:00,9.0,1.0,30.14,NNE,23,3.0,-999.0,69,-99.99,,,-99.99,,2013-03-24 16:32:00,
2013-03-24 10:42:00,9.0,1.0,30.14,NNE,23,3.0,-999.0,69,-99.99,,,-99.99,,2013-03-24 16:42:00,
2013-03-24 10:52:00,10.0,2.0,30.14,NE,40,5.0,-999.0,68,-99.99,,,-99.99,,2013-03-24 16:52:00,
2013-03-24 11:02:00,11.0,2.0,30.14,NNE,30,4.0,-999.0,66,-99.99,,,-99.99,,2013-03-24 17:02:00,
2013-03-24 11:12:00,11.0,2.0,30.14,NNE,30,4.0,-999.0,66,-99.99,,,-99.99,,2013-03-24 17:12:00,
2013-03-24 11:22:00,12.0,3.0,30.14,NNE,27,4.0,-999.0,66,-99.99,,,-99.99,,2013-03-24 17:22:00,
2013-03-24 11:32:00,14.0,4.0,30.14,NE,42,2.0,-999.0,64,-99.99,,,-99.99,,2013-03-24 17:32:00,
2013-03-24 11:42:00,14.0,4.0,30.14,NE,42,2.0,-999.0,64,-99.99,,,-99.99,,2013-03-24 17:42:00,
2013-03-24 11:53:00,16.0,5.0,30.14,East,80,1.0,-999.0,60,-99.99,,,-99.99,,2013-03-24 17:53:00,
2013-03-24 12:01:00,16.0,5.0,30.14,NE,47,2.0,-999.0,61,-99.99,,,-99.99,,2013-03-24 18:01:00,
2013-03-24 12:11:00,16.0,5.0,30.14,NE,47,2.0,-999.0,61,-99.99,,,-99.99,,2013-03-24 18:11:00,
2013-03-24 12:32:00,19.0,7.0,30.13,NE,47,0.0,-999.0,59,-99.99,,,-99.99,,2013-03-24 18:32:00,
2013-03-24 12:42:00,19.0,7.0,30.13,NE,47,0.0,-999.0,59,-99.99,,,-99.99,,2013-03-24 18:42:00,
2013-03-24 12:52:00,21.0,7.0,30.13,NE,47,0.0,-999.0,54,-99.99,,,-99.99,,2013-03-24 18:52:00,
2013-03-24 13:02:00,22.0,5.0,30.12,NE,47,0.0,-999.0,48,-99.99,,,-99.99,,2013-03-24 19:02:00,
2013-03-24 13:11:00,22.0,5.0,30.12,NE,47,0.0,-999.0,48,-99.99,,,-99.99,,2013-03-24 19:11:00,
2013-03-24 13:22:00,23.0,5.0,30.12,West,268,0.0,-999.0,46,-99.99,,,-99.99,,2013-03-24 19:22:00,
2013-03-24 13:31:00,24.0,6.0,30.12,NW,305,0.0,-999.0,45,-99.99,,,-99.99,,2013-03-24 19:31:00,
2013-03-24 13:42:00,24.0,6.0,30.12,NW,305,0.0,-999.0,45,-99.99,,,-99.99,,2013-03-24 19:42:00,
2013-03-24 13:53:00,24.0,4.0,30.11,NNE,16,1.0,-999.0,42,-99.99,,,-99.99,,2013-03-24 19:53:00,
2013-03-24 14:02:00,25.0,5.0,30.13,NNE,16,1.0,-999.0,42,-99.99,,,-99.99,,2013-03-24 20:02:00,
2013-03-24 14:12:00,25.0,5.0,30.13,NNE,16,1.0,-999.0,42,-99.99,,,-99.99,,2013-03-24 20:12:00,
2013-03-24 14:22:00,25.0,5.0,30.13,ESE,107,1.0,-999.0,42,-99.99,,,-99.99,,2013-03-24 20:22:00,
2013-03-24 14:31:00,23.0,4.0,30.12,NE,34,2.0,-999.0,44,-99.99,,,-99.99,,2013-03-24 20:31:00,
2013-03-24 14:42:00,23.0,4.0,30.12,NE,34,2.0,-999.0,44,-99.99,,,-99.99,,2013-03-24 20:42:00,
2013-03-24 14:53:00,24.0,4.0,30.12,NE,37,2.0,-999.0,42,-99.99,,,-99.99,,2013-03-24 20:53:00,
2013-03-24 15:02:00,25.0,5.0,30.12,East,88,0.0,-999.0,42,-99.99,,,-99.99,,2013-03-24 21:02:00,
2013-03-24 15:11:00,25.0,5.0,30.12,East,88,0.0,-999.0,42,-99.99,,,-99.99,,2013-03-24 21:11:00,
2013-03-24 15:22:00,26.0,6.0,30.11,NE,36,0.0,-999.0,42,-99.99,,,-99.99,,2013-03-24 21:22:00,
2013-03-24 15:32:00,24.0,5.0,30.11,NNE,22,3.0,-999.0,44,-99.99,,,-99.99,,2013-03-24 21:32:00,
2013-03-24 15:42:00,24.0,5.0,30.11,NNE,22,3.0,-999.0,44,-99.99,,,-99.99,,2013-03-24 21:42:00,
2013-03-24 15:53:00,25.0,6.0,30.11,ESE,107,3.0,-999.0,43,-99.99,,,-99.99,,2013-03-24 21:53:00,
2013-03-24 16:02:00,26.0,4.0,30.11,ENE,75,1.0,-999.0,39,-99.99,,,-99.99,,2013-03-24 22:02:00,
2013-03-24 16:12:00,26.0,4.0,30.11,ENE,75,1.0,-999.0,39,-99.99,,,-99.99,,2013-03-24 22:12:00,
2013-03-24 16:22:00,26.0,5.0,30.10,SE,132,3.0,-999.0,40,-99.99,,,-99.99,,2013-03-24 22:22:00,
2013-03-24 16:32:00,26.0,6.0,30.10,NE,55,3.0,-999.0,41,-99.99,,,-99.99,,2013-03-24 22:32:00,
2013-03-24 16:42:00,26.0,6.0,30.10,NE,55,3.0,-999.0,41,-99.99,,,-99.99,,2013-03-24 22:42:00,
2013-03-24 16:52:00,25.0,5.0,30.10,NE,49,4.0,-999.0,41,-99.99,,,-99.99,,2013-03-24 22:52:00,
2013-03-24 17:02:00,27.0,4.0,30.10,East,94,2.0,-999.0,37,-99.99,,,-99.99,,2013-03-24 23:02:00,
2013-03-24 17:11:00,27.0,4.0,30.10,East,94,2.0,-999.0,37,-99.99,,,-99.99,,2013-03-24 23:11:00,
2013-03-24 17:22:00,26.0,1.0,30.10,WNW,296,6.0,-999.0,33,-99.99,,,-99.99,,2013-03-24 23:22:00,
2013-03-24 17:31:00,26.0,1.0,30.10,WNW,282,3.0,-999.0,33,-99.99,,,-99.99,,2013-03-24 23:31:00,
2013-03-24 17:42:00,26.0,1.0,30.10,WNW,282,3.0,-999.0,33,-99.99,,,-99.99,,2013-03-24 23:42:00,
2013-03-24 17:52:00,26.0,-3.0,30.10,West,278,3.0,-999.0,28,-99.99,,,-99.99,,2013-03-24 23:52:00,
2013-03-24 18:01:00,26.0,-1.0,30.10,WSW,252,3.0,-999.0,30,-99.99,,,-99.99,,2013-03-25 00:01:00,
2013-03-24 18:11:00,26.0,-1.0,30.10,WSW,252,3.0,-999.0,30,-99.99,,,-99.99,,2013-03-25 00:11:00,
2013-03-24 18:22:00,25.0,-1.0,30.10,WNW,295,6.0,-999.0,31,-99.99,,,-99.99,,2013-03-25 00:22:00,
2013-03-24 18:32:00,25.0,-1.0,30.11,West,273,6.0,-999.0,31,-99.99,,,-99.99,,2013-03-25 00:32:00,
2013-03-24 18:42:00,25.0,-1.0,30.11,West,273,6.0,-999.0,31,-99.99,,,-99.99,,2013-03-25 00:42:00,
2013-03-24 18:52:00,25.0,-1.0,30.11,West,263,5.0,-999.0,32,-99.99,,,-99.99,,2013-03-25 00:52:00,
2013-03-24 19:01:00,24.0,-2.0,30.11,SW,214,5.0,-999.0,32,-99.99,,,-99.99,,2013-03-25 01:01:00,
2013-03-24 19:11:00,24.0,-2.0,30.11,SW,214,5.0,-999.0,32,-99.99,,,-99.99,,2013-03-25 01:11:00,
2013-03-24 19:21:00,23.0,0.0,30.11,West,269,6.0,-999.0,36,-99.99,,,-99.99,,2013-03-25 01:21:00,
2013-03-24 19:32:00,21.0,0.0,30.11,West,269,3.0,-999.0,39,-99.99,,,-99.99,,2013-03-25 01:32:00,
2013-03-24 19:42:00,21.0,0.0,30.11,West,269,3.0,-999.0,39,-99.99,,,-99.99,,2013-03-25 01:42:00,
2013-03-24 19:52:00,20.0,2.0,30.11,West,269,1.0,-999.0,44,-99.99,,,-99.99,,2013-03-25 01:52:00,
2013-03-24 20:01:00,19.0,2.0,30.11,West,269,1.0,-999.0,46,-99.99,,,-99.99,,2013-03-25 02:01:00,
2013-03-24 20:11:00,19.0,2.0,30.11,West,269,1.0,-999.0,46,-99.99,,,-99.99,,2013-03-25 02:11:00,
2013-03-24 20:22:00,18.0,2.0,30.11,West,269,1.0,-999.0,48,-99.99,,,-99.99,,2013-03-25 02:22:00,
2013-03-24 20:31:00,17.0,2.0,30.11,West,269,2.0,-999.0,50,-99.99,,,-99.99,,2013-03-25 02:31:00,
2013-03-24 20:42:00,17.0,2.0,30.11,West,269,2.0,-999.0,50,-99.99,,,-99.99,,2013-03-25 02:42:00,
2013-03-24 20:52:00,16.0,2.0,30.12,West,269,2.0,-999.0,53,-99.99,,,-99.99,,2013-03-25 02:52:00,
2013-03-24 21:01:00,17.0,3.0,30.12,WNW,290,2.0,-999.0,53,-99.99,,,-99.99,,2013-03-25 03:01:00,
2013-03-24 21:11:00,17.0,3.0,30.12,WNW,290,2.0,-999.0,53,-99.99,,,-99.99,,2013-03-25 03:11:00,
2013-03-24 21:22:00,14.0,2.0,30.12,NW,307,2.0,-999.0,59,-99.99,,,-99.99,,2013-03-25 03:22:00,
2013-03-24 21:32:00,10.0,0.0,30.13,ESE,113,2.0,-999.0,63,-99.99,,,-99.99,,2013-03-25 03:32:00,
2013-03-24 21:42:00,8.0,0.0,30.13,ESE,112,1.0,-999.0,69,-99.99,,,-99.99,,2013-03-25 03:42:00,
2013-03-24 22:02:00,8.0,0.0,30.14,East,92,1.0,-999.0,70,-99.99,,,-99.99,,2013-03-25 04:02:00,
2013-03-24 22:12:00,8.0,0.0,30.14,East,92,1.0,-999.0,70,-99.99,,,-99.99,,2013-03-25 04:12:00,
2013-03-24 22:22:00,6.0,0.0,30.14,NNW,338,2.0,-999.0,76,-99.99,,,-99.99,,2013-03-25 04:22:00,
2013-03-24 22:32:00,4.0,-4.0,30.15,NNW,342,1.0,-999.0,68,-99.99,,,-99.99,,2013-03-25 04:32:00,
2013-03-24 22:42:00,4.0,-4.0,30.15,NNW,342,1.0,-999.0,68,-99.99,,,-99.99,,2013-03-25 04:42:00,
2013-03-24 22:52:00,-1.0,-7.0,30.13,NNW,346,2.0,-999.0,75,-99.99,,,-99.99,,2013-03-25 04:52:00,
2013-03-24 23:02:00,1.0,-4.0,30.14,NNE,26,2.0,-999.0,77,-99.99,,,-99.99,,2013-03-25 05:02:00,
2013-03-24 23:22:00,2.0,-3.0,30.14,North,5,1.0,-999.0,78,-99.99,,,-99.99,,2013-03-25 05:22:00,
2013-03-24 23:32:00,3.0,-4.0,30.14,North,5,2.0,-999.0,73,-99.99,,,-99.99,,2013-03-25 05:32:00,
2013-03-24 23:42:00,3.0,-4.0,30.14,North,5,2.0,-999.0,73,-99.99,,,-99.99,,2013-03-25 05:42:00,
2013-03-24 23:52:00,1.0,-6.0,30.14,North,5,1.0,-999.0,73,-99.99,,,-99.99,,2013-03-25 05:52:00,